EST,Max TemperatureF,Mean TemperatureF,Min TemperatureF,Max Dew PointF,MeanDew PointF,Min DewpointF,Max Humidity, Mean Humidity, Min Humidity, Max Sea Level PressureIn, Mean Sea Level PressureIn, Min Sea Level PressureIn, Max VisibilityMiles, Mean VisibilityMiles, Min VisibilityMiles, Max Wind SpeedMPH, Mean Wind SpeedMPH, Max Gust SpeedMPH,PrecipitationIn, CloudCover, Events, WindDirDegrees
2014-1-1,77,74,71,72,70,63,96,88,75,30.20,30.12,30.06,10,10,10,17,13,24,0.00,6,Rain,115
2014-1-2,80,75,70,70,67,63,100,81,60,30.04,29.97,29.89,10,10,10,15,9,25,0.00,1,,198
2014-1-3,70,64,57,70,56,44,100,78,57,30.18,30.05,29.91,10,10,10,22,13,32,0.00,6,Rain,337
2014-1-4,73,68,64,68,64,54,88,80,68,30.18,30.12,30.07,10,10,5,15,12,24,0.04,6,Rain,78
2014-1-5,80,75,70,72,69,65,93,81,73,30.06,30.01,29.96,10,10,7,22,11,29,0.08,3,Rain,162
2014-1-6,80,68,55,70,63,33,100,81,43,30.20,30.05,29.98,10,9,2,22,7,33,0.12,4,Rain,261
2014-1-7,55,50,46,50,42,26,89,72,41,30.31,30.26,30.21,10,10,9,20,16,29,0.01,8,Rain,334
2014-1-8,66,57,48,66,59,48,100,98,87,30.31,30.25,30.21,10,8,2,23,13,32,0.19,8,Rain,43
2014-1-9,71,68,66,72,70,66,100,100,96,30.25,30.19,30.13,10,9,2,21,16,30,0.23,7,Rain,97
2014-1-10,73,71,69,71,70,68,100,96,90,30.17,30.13,30.08,10,10,8,18,12,23,0.00,4,,128
2014-1-11,78,74,69,72,70,69,100,93,74,30.13,30.07,29.99,10,10,8,18,11,28,0.00,4,,167
2014-1-12,78,71,64,70,64,58,100,80,50,30.17,30.11,30.04,10,9,6,15,8,21,0.00,2,,323
2014-1-13,80,76,71,70,66,62,83,74,62,30.17,30.10,30.05,10,10,10,14,9,,0.00,4,,118
2014-1-14,84,76,68,71,67,63,100,78,51,30.05,30.00,29.95,10,10,8,14,6,23,0.00,1,,224
2014-1-15,71,65,57,65,59,49,94,78,54,30.03,29.99,29.95,10,9,2,15,6,,0.12,6,Rain,297
2014-1-16,60,53,46,54,41,26,82,59,28,30.16,30.06,29.96,10,10,10,22,11,30,0.01,2,,304
2014-1-17,66,54,43,41,36,30,74,50,33,30.22,30.16,30.11,10,10,9,9,6,,0.00,0,,305
2014-1-18,68,57,46,47,38,29,77,50,29,30.25,30.19,30.15,10,10,10,14,7,20,0.00,1,,312
2014-1-19,70,56,43,47,34,26,72,45,25,30.29,30.21,30.16,10,10,10,10,6,,0.00,0,,290
2014-1-20,75,65,55,57,53,48,81,63,45,30.21,30.13,30.06,10,10,10,13,6,18,0.00,2,,237
2014-1-21,75,69,63,59,57,54,87,70,48,30.07,29.98,29.91,10,10,10,16,8,22,0.01,5,Rain,233
2014-1-22,64,56,48,60,41,28,87,56,28,30.18,30.05,29.90,10,10,9,20,13,32,0.00,1,,313
2014-1-23,72,58,44,54,44,30,75,59,38,30.30,30.24,30.17,10,10,10,12,8,17,0.00,1,,348
2014-1-24,72,64,57,53,51,49,81,66,46,30.38,30.28,30.24,10,10,10,16,10,23,0.00,2,,351
2014-1-25,75,64,53,60,54,49,87,68,43,30.22,30.14,30.06,10,10,10,10,5,,0.00,3,,268
2014-1-26,78,66,55,61,58,53,93,71,43,30.10,30.05,30.00,10,10,8,12,5,,0.00,2,,213
2014-1-27,81,70,60,68,63,56,90,74,49,30.05,30.01,29.95,10,10,7,12,3,,0.00,1,,192
2014-1-28,80,71,62,69,65,60,93,79,62,30.09,30.04,29.98,10,9,5,15,4,21,0.00,1,,164
2014-1-29,77,72,66,70,67,63,94,88,76,30.09,30.04,29.99,10,8,2,15,5,23,0.70,7,Rain,7
2014-1-30,71,66,62,68,65,61,100,91,81,30.12,30.06,30.03,10,7,2,15,8,,0.76,8,Rain,347
2014-1-31,82,76,71,74,71,68,94,88,71,30.09,30.04,30.01,10,6,2,14,9,,1.09,6,Rain,110